createdAt,value
2018-06-16T00:01:07.985Z,99397.52
2018-06-16T00:03:36.621Z,99401.59
2018-06-16T00:06:05.376Z,99398.26
2018-06-16T00:08:34.141Z,99396.16
2018-06-16T00:11:02.954Z,99391.94
2018-06-16T00:13:31.642Z,99398.01
2018-06-16T00:16:00.391Z,99400.30
2018-06-16T00:18:29.054Z,99401.59
2018-06-16T00:20:57.763Z,99395.13
2018-06-16T00:23:26.466Z,99391.27
2018-06-16T00:25:55.156Z,99389.39
2018-06-16T00:28:23.864Z,99398.77
2018-06-16T00:30:52.676Z,99389.45
2018-06-16T00:33:21.427Z,99391.33
2018-06-16T00:35:50.097Z,99392.20
2018-06-16T00:38:18.815Z,99396.73
2018-06-16T00:40:47.697Z,99392.20
2018-06-16T00:43:16.458Z,99391.64
2018-06-16T00:45:45.254Z,99394.77
2018-06-16T00:48:14.002Z,99393.85
2018-06-16T00:50:42.690Z,99404.75
2018-06-16T00:53:11.396Z,99404.02
2018-06-16T00:55:40.373Z,99398.37
2018-06-16T00:58:09.754Z,99392.66
2018-06-16T01:00:38.608Z,99390.75
2018-06-16T01:03:07.370Z,99392.34
2018-06-16T01:05:36.046Z,99394.13
2018-06-16T01:08:05.426Z,99388.31
2018-06-16T01:10:34.177Z,99385.59
2018-06-16T01:13:02.910Z,99382.41
2018-06-16T01:15:31.679Z,99384.36
2018-06-16T01:18:00.385Z,99379.52
2018-06-16T01:20:29.139Z,99377.77
2018-06-16T01:22:57.809Z,99369.06
2018-06-16T01:25:26.570Z,99370.91
2018-06-16T01:27:55.389Z,99362.91
2018-06-16T01:30:24.219Z,99368.73
2018-06-16T01:32:52.935Z,99368.43
2018-06-16T01:35:21.786Z,99360.42
2018-06-16T01:37:50.473Z,99368.84
2018-06-16T01:40:19.132Z,99363.76
2018-06-16T01:42:47.785Z,99353.92
2018-06-16T01:45:16.434Z,99360.42
2018-06-16T01:47:45.101Z,99365.96
2018-06-16T01:50:13.813Z,99351.49
2018-06-16T01:52:42.501Z,99353.43
2018-06-16T01:55:11.179Z,99347.38
2018-06-16T01:57:39.845Z,99348.13
2018-06-16T02:00:08.670Z,99344.20
2018-06-16T02:02:37.397Z,99351.67
2018-06-16T02:05:06.844Z,99349.98
2018-06-16T02:07:35.569Z,99351.50
2018-06-16T02:10:04.364Z,99349.75
2018-06-16T02:12:33.021Z,99354.38
2018-06-16T02:15:01.707Z,99361.32
2018-06-16T02:17:30.393Z,99357.66
2018-06-16T02:19:59.025Z,99357.48
2018-06-16T02:22:27.759Z,99358.03
2018-06-16T02:24:56.437Z,99355.94
2018-06-16T02:27:25.167Z,99357.61
2018-06-16T02:29:53.868Z,99355.85
2018-06-16T02:32:22.520Z,99355.09
2018-06-16T02:34:51.151Z,99360.80
2018-06-16T02:37:19.780Z,99360.37
2018-06-16T02:39:48.439Z,99361.80
2018-06-16T02:42:17.097Z,99360.37
2018-06-16T02:44:45.726Z,99359.73
2018-06-16T02:47:14.422Z,99354.77
2018-06-16T02:49:43.140Z,99361.41
2018-06-16T02:52:11.908Z,99360.83
2018-06-16T02:54:40.497Z,99364.58
2018-06-16T02:57:09.591Z,99367.56
2018-06-16T02:59:38.245Z,99372.95
2018-06-16T03:02:06.970Z,99368.28
2018-06-16T03:04:35.666Z,99376.32
2018-06-16T03:07:04.366Z,99379.87
2018-06-16T03:09:33.063Z,99374.39
2018-06-16T03:12:01.785Z,99377.86
2018-06-16T03:14:30.415Z,99375.52
2018-06-16T03:16:59.050Z,99377.27
2018-06-16T03:19:27.678Z,99372.38
2018-06-16T03:21:56.412Z,99378.05
2018-06-16T03:24:25.067Z,99382.78
2018-06-16T03:26:53.757Z,99383.66
2018-06-16T03:29:22.399Z,99381.09
2018-06-16T03:31:51.028Z,99382.98
2018-06-16T03:34:19.723Z,99375.94
2018-06-16T03:36:48.402Z,99377.82
2018-06-16T03:39:17.029Z,99385.41
2018-06-16T03:41:45.699Z,99379.64
2018-06-16T03:44:14.339Z,99391.94
2018-06-16T03:46:42.983Z,99387.65
2018-06-16T03:49:12.561Z,99377.59
2018-06-16T03:51:41.186Z,99397.64
2018-06-16T03:54:09.822Z,99381.80
2018-06-16T03:56:38.742Z,99388.30
2018-06-16T03:59:07.444Z,99387.50
2018-06-16T04:01:36.069Z,99376.61
2018-06-16T04:04:05.439Z,99393.45
2018-06-16T04:06:34.113Z,99381.64
2018-06-16T04:09:02.811Z,99391.78
2018-06-16T04:11:31.507Z,99387.52
2018-06-16T04:14:00.215Z,99383.91
2018-06-16T04:16:28.937Z,99394.13
2018-06-16T04:18:57.670Z,99390.08
2018-06-16T04:21:26.336Z,99389.95
2018-06-16T04:23:55.027Z,99386.23
2018-06-16T04:26:23.683Z,99380.02
2018-06-16T04:28:52.425Z,99394.19
2018-06-16T04:31:21.124Z,99391.55
2018-06-16T04:33:50.681Z,99386.61
2018-06-16T04:36:20.004Z,99390.41
2018-06-16T04:38:48.663Z,99396.17
2018-06-16T04:41:17.306Z,99394.88
2018-06-16T04:43:45.987Z,99389.78
2018-06-16T04:46:14.635Z,99388.81
2018-06-16T04:48:43.332Z,99392.42
2018-06-16T04:51:12.149Z,99394.69
2018-06-16T04:53:40.803Z,99391.44
2018-06-16T04:56:09.478Z,99398.42
2018-06-16T04:58:38.206Z,99393.38
2018-06-16T05:01:06.819Z,99392.08
2018-06-16T05:03:35.483Z,99394.29
2018-06-16T05:06:04.186Z,99389.66
2018-06-16T05:08:32.872Z,99393.16
2018-06-16T05:11:01.468Z,99389.89
2018-06-16T05:13:30.165Z,99390.91
2018-06-16T05:15:58.829Z,99390.56
2018-06-16T05:18:27.472Z,99398.47
2018-06-16T05:20:56.197Z,99397.31
2018-06-16T05:23:24.927Z,99400.22
2018-06-16T05:25:53.574Z,99400.22
2018-06-16T05:28:22.256Z,99392.07
2018-06-16T05:30:50.872Z,99400.27
2018-06-16T05:33:19.536Z,99395.45
2018-06-16T05:35:48.897Z,99396.74
2018-06-16T05:38:17.652Z,99392.38
2018-06-16T05:40:46.314Z,99388.66
2018-06-16T05:43:15.035Z,99397.41
2018-06-16T05:45:44.113Z,99394.81
2018-06-16T05:48:12.835Z,99391.09
2018-06-16T05:50:41.514Z,99394.89
2018-06-16T05:53:10.205Z,99395.63
2018-06-16T05:55:38.881Z,99401.03
2018-06-16T05:58:07.565Z,99403.49
2018-06-16T06:00:36.259Z,99407.78
2018-06-16T06:03:05.220Z,99401.16
2018-06-16T06:05:33.959Z,99406.36
2018-06-16T06:08:02.615Z,99399.05
2018-06-16T06:10:31.368Z,99410.14
2018-06-16T06:13:00.007Z,99403.14
2018-06-16T06:15:29.663Z,99408.50
2018-06-16T06:17:58.413Z,99401.38
2018-06-16T06:20:27.085Z,99405.84
2018-06-16T06:22:55.763Z,99409.94
2018-06-16T06:25:24.408Z,99414.20
2018-06-16T06:27:53.143Z,99409.58
2018-06-16T06:30:21.805Z,99417.39
2018-06-16T06:32:50.490Z,99418.97
2018-06-16T06:35:19.149Z,99418.69
2018-06-16T06:37:47.838Z,99415.17
2018-06-16T06:40:16.583Z,99422.37
2018-06-16T06:42:45.346Z,99412.48
2018-06-16T06:45:14.285Z,99418.48
2018-06-16T06:47:42.974Z,99417.05
2018-06-16T06:50:11.707Z,99416.02
2018-06-16T06:52:40.404Z,99418.69
2018-06-16T06:55:10.149Z,99414.48
2018-06-16T06:57:40.990Z,99410.94
2018-06-16T07:00:09.871Z,99410.10
2018-06-16T07:02:38.527Z,99414.41
2018-06-16T07:05:07.204Z,99415.51
2018-06-16T07:07:35.999Z,99415.50
2018-06-16T07:10:04.658Z,99412.64
2018-06-16T07:12:33.407Z,99412.82
2018-06-16T07:15:02.047Z,99407.54
2018-06-16T07:17:30.732Z,99403.58
2018-06-16T07:19:59.419Z,99398.36
2018-06-16T07:22:28.071Z,99404.08
2018-06-16T07:24:56.730Z,99398.50
2018-06-16T07:27:25.364Z,99392.09
2018-06-16T07:29:54.075Z,99398.44
2018-06-16T07:32:22.780Z,99393.27
2018-06-16T07:34:51.439Z,99390.96
2018-06-16T07:37:20.137Z,99411.53
2018-06-16T07:39:48.865Z,99395.76
2018-06-16T07:42:17.523Z,99381.88
2018-06-16T07:44:46.171Z,99392.09
2018-06-16T07:47:14.872Z,99383.47
2018-06-16T07:49:43.567Z,99389.50
2018-06-16T07:52:12.255Z,99393.41
2018-06-16T07:54:40.931Z,99391.30
2018-06-16T07:59:43.474Z,99384.28
2018-06-16T08:02:12.141Z,99382.28
2018-06-16T08:04:40.848Z,99373.30
2018-06-16T08:07:09.484Z,99373.12
2018-06-16T08:09:38.437Z,99369.11
2018-06-16T08:12:07.291Z,99361.03
2018-06-16T08:14:36.014Z,99378.91
2018-06-16T08:17:04.645Z,99368.09
2018-06-16T08:19:33.260Z,99365.41
2018-06-16T08:22:02.015Z,99361.05
2018-06-16T08:24:30.952Z,99359.63
2018-06-16T08:27:00.032Z,99364.30
2018-06-16T08:29:28.747Z,99352.59
2018-06-16T08:31:57.583Z,99371.41
2018-06-16T08:34:26.242Z,99354.23
2018-06-16T08:36:54.904Z,99344.74
2018-06-16T08:39:23.539Z,99347.55
2018-06-16T08:41:52.170Z,99361.70
2018-06-16T08:44:20.811Z,99347.21
2018-06-16T08:46:49.447Z,99343.81
2018-06-16T08:49:18.084Z,99345.63
2018-06-16T08:51:46.824Z,99346.98
2018-06-16T08:54:15.470Z,99361.94
2018-06-16T08:56:44.323Z,99354.02
2018-06-16T08:59:13.139Z,99347.05
2018-06-16T09:01:42.555Z,99341.95
2018-06-16T09:04:11.242Z,99349.80
2018-06-16T09:06:40.122Z,99333.88
2018-06-16T09:09:09.459Z,99334.02
2018-06-16T09:11:38.591Z,99333.66
2018-06-16T09:14:07.253Z,99330.45
2018-06-16T09:16:36.067Z,99341.02
2018-06-16T09:19:05.184Z,99331.49
2018-06-16T09:21:33.828Z,99329.97
2018-06-16T09:24:02.568Z,99323.77
2018-06-16T09:26:31.213Z,99328.53
2018-06-16T09:28:59.833Z,99328.89
2018-06-16T09:31:28.465Z,99329.66
2018-06-16T09:33:57.310Z,99319.41
2018-06-16T09:36:26.581Z,99312.27
2018-06-16T09:38:55.239Z,99324.80
2018-06-16T09:41:24.107Z,99324.30
2018-06-16T09:43:52.861Z,99326.25
2018-06-16T09:46:21.499Z,99321.16
2018-06-16T09:48:50.174Z,99313.67
2018-06-16T09:51:18.882Z,99314.50
2018-06-16T09:53:47.590Z,99330.25
2018-06-16T09:56:16.254Z,99318.73
2018-06-16T09:58:44.902Z,99324.34
2018-06-16T10:01:13.615Z,99321.33
2018-06-16T10:03:42.294Z,99320.99
2018-06-16T10:06:10.925Z,99314.37
2018-06-16T10:08:39.689Z,99325.83
2018-06-16T10:11:08.434Z,99319.64
2018-06-16T10:13:37.169Z,99321.98
2018-06-16T10:16:05.982Z,99314.52
2018-06-16T10:18:34.690Z,99311.33
2018-06-16T10:21:03.401Z,99317.33
2018-06-16T10:23:32.115Z,99314.09
2018-06-16T10:26:00.793Z,99309.05
2018-06-16T10:28:29.439Z,99303.99
2018-06-16T10:30:58.194Z,99303.36
2018-06-16T10:33:26.823Z,99297.21
2018-06-16T10:35:55.543Z,99298.33
2018-06-16T10:38:24.829Z,99298.03
2018-06-16T10:40:53.438Z,99305.66
2018-06-16T10:43:22.105Z,99296.38
2018-06-16T10:45:50.698Z,99310.89
2018-06-16T10:48:19.345Z,99297.83
2018-06-16T10:50:47.957Z,99300.25
2018-06-16T10:53:16.558Z,99293.48
2018-06-16T10:55:45.153Z,99296.00
2018-06-16T10:58:13.777Z,99290.55
2018-06-16T11:00:42.436Z,99287.38
2018-06-16T11:03:11.105Z,99293.88
2018-06-16T11:05:39.783Z,99293.93
2018-06-16T11:08:08.548Z,99283.95
2018-06-16T11:10:37.169Z,99282.34
2018-06-16T11:13:05.829Z,99277.05
2018-06-16T11:15:34.409Z,99284.17
2018-06-16T11:18:03.023Z,99284.84
2018-06-16T11:20:31.613Z,99279.05
2018-06-16T11:23:00.194Z,99279.81
2018-06-16T11:25:28.814Z,99276.34
2018-06-16T11:27:57.418Z,99278.58
2018-06-16T11:30:26.076Z,99278.45
2018-06-16T11:32:54.690Z,99276.64
2018-06-16T11:35:23.322Z,99277.22
2018-06-16T11:37:51.988Z,99271.55
2018-06-16T11:40:20.648Z,99274.67
2018-06-16T11:42:49.403Z,99273.19
2018-06-16T11:45:18.037Z,99270.37
2018-06-16T11:47:47.421Z,99271.78
2018-06-16T11:50:16.111Z,99272.03
2018-06-16T11:52:44.746Z,99274.83
2018-06-16T11:55:14.030Z,99280.70
2018-06-16T11:57:42.768Z,99270.75
2018-06-16T12:00:11.397Z,99272.13
2018-06-16T12:02:40.153Z,99276.77
2018-06-16T12:05:08.755Z,99281.58
2018-06-16T12:07:38.072Z,99294.59
2018-06-16T12:10:13.376Z,99284.52
2018-06-16T12:12:42.113Z,99279.58
2018-06-16T12:15:10.734Z,99281.28
2018-06-16T12:17:39.365Z,99282.38
2018-06-16T12:20:08.029Z,99282.86
2018-06-16T12:22:36.693Z,99277.02
2018-06-16T12:25:05.374Z,99278.56
2018-06-16T12:27:33.995Z,99271.30
2018-06-16T12:30:03.390Z,99277.34
2018-06-16T12:32:32.047Z,99277.26
2018-06-16T12:35:00.733Z,99272.16
2018-06-16T12:37:29.355Z,99273.79
2018-06-16T12:39:58.009Z,99268.42
2018-06-16T12:42:26.754Z,99277.41
2018-06-16T12:44:55.442Z,99278.22
2018-06-16T12:47:24.069Z,99283.27
2018-06-16T12:49:52.651Z,99275.03
2018-06-16T12:52:21.338Z,99270.88
2018-06-16T12:54:49.965Z,99274.62
2018-06-16T12:57:18.644Z,99276.34
2018-06-16T12:59:47.274Z,99278.74
2018-06-16T13:02:15.860Z,99279.58
2018-06-16T13:04:44.611Z,99278.08
2018-06-16T13:07:13.585Z,99278.83
2018-06-16T13:09:42.276Z,99276.87
2018-06-16T13:12:10.923Z,99280.45
2018-06-16T13:14:41.162Z,99284.32
2018-06-16T13:17:09.759Z,99280.27
2018-06-16T13:19:38.454Z,99282.53
2018-06-16T13:22:07.148Z,99277.87
2018-06-16T13:24:35.859Z,99274.16
2018-06-16T13:27:04.554Z,99281.16
2018-06-16T13:29:33.195Z,99273.06
2018-06-16T13:32:01.902Z,99276.01
2018-06-16T13:34:30.535Z,99278.02
2018-06-16T13:36:59.198Z,99280.70
2018-06-16T13:39:27.851Z,99281.03
2018-06-16T13:41:56.485Z,99275.34
2018-06-16T13:44:25.104Z,99275.70
2018-06-16T13:46:56.474Z,99267.73
2018-06-16T13:49:25.108Z,99277.82
2018-06-16T13:51:53.758Z,99270.91
2018-06-16T13:54:22.377Z,99267.34
2018-06-16T13:56:51.042Z,99264.60
2018-06-16T13:59:19.722Z,99263.67
2018-06-16T14:01:48.323Z,99267.42
2018-06-16T14:04:16.954Z,99265.38
2018-06-16T14:06:45.566Z,99266.11
2018-06-16T14:09:14.194Z,99259.14
2018-06-16T14:11:42.843Z,99259.61
2018-06-16T14:14:11.517Z,99255.56
2018-06-16T14:16:40.222Z,99266.97
2018-06-16T14:19:08.905Z,99272.97
2018-06-16T14:21:37.553Z,99259.36
2018-06-16T14:24:11.674Z,99259.63
2018-06-16T14:26:42.030Z,99258.66
2018-06-16T14:29:10.748Z,99261.06
2018-06-16T14:31:39.434Z,99264.69
2018-06-16T14:34:08.112Z,99260.08
2018-06-16T14:36:39.332Z,99258.52
2018-06-16T14:39:09.059Z,99254.51
2018-06-16T14:41:37.659Z,99260.05
2018-06-16T14:44:06.950Z,99255.56
2018-06-16T14:46:35.607Z,99250.38
2018-06-16T14:49:04.386Z,99251.00
2018-06-16T14:51:33.032Z,99251.02
2018-06-16T14:54:01.719Z,99246.84
2018-06-16T14:56:30.343Z,99248.77
2018-06-16T14:58:58.984Z,99255.17
2018-06-16T15:01:27.703Z,99251.94
2018-06-16T15:03:56.295Z,99253.64
2018-06-16T15:06:24.962Z,99254.61
2018-06-16T15:08:53.684Z,99246.27
2018-06-16T15:11:22.294Z,99252.16
2018-06-16T15:13:53.301Z,99243.83
2018-06-16T15:16:22.239Z,99241.88
2018-06-16T15:18:50.941Z,99243.27
2018-06-16T15:21:19.598Z,99240.91
2018-06-16T15:23:50.598Z,99237.78
2018-06-16T15:26:20.134Z,99242.09
2018-06-16T15:28:51.947Z,99240.31
2018-06-16T15:31:20.546Z,99239.50
2018-06-16T15:33:49.150Z,99239.00
2018-06-16T15:36:19.013Z,99238.64
2018-06-16T15:38:47.725Z,99240.09
2018-06-16T15:41:16.370Z,99234.93
2018-06-16T15:43:45.020Z,99239.34
2018-06-16T15:46:13.691Z,99234.59
2018-06-16T15:48:42.828Z,99228.63
2018-06-16T15:51:11.522Z,99230.80
2018-06-16T15:53:40.144Z,99223.86
2018-06-16T15:56:08.838Z,99218.87
2018-06-16T15:58:37.501Z,99226.23
2018-06-16T16:01:06.160Z,99221.06
2018-06-16T16:03:34.762Z,99216.27
2018-06-16T16:06:03.390Z,99214.77
2018-06-16T16:08:32.038Z,99217.85
2018-06-16T16:11:00.694Z,99226.23
2018-06-16T16:13:29.333Z,99217.30
2018-06-16T16:15:57.936Z,99221.11
2018-06-16T16:18:26.569Z,99219.39
2018-06-16T16:20:55.334Z,99213.70
2018-06-16T16:23:23.965Z,99214.73
2018-06-16T16:25:52.646Z,99214.29
2018-06-16T16:28:21.330Z,99214.48
2018-06-16T16:30:50.009Z,99219.80
2018-06-16T16:33:18.745Z,99213.27
2018-06-16T16:35:47.890Z,99216.26
2018-06-16T16:38:16.570Z,99219.23
2018-06-16T16:40:45.305Z,99218.09
2018-06-16T16:43:13.958Z,99216.63
2018-06-16T16:45:42.738Z,99220.34
2018-06-16T16:48:11.453Z,99219.16
2018-06-16T16:50:40.810Z,99215.35
2018-06-16T16:53:09.436Z,99223.37
2018-06-16T16:55:38.176Z,99224.17
2018-06-16T16:58:06.869Z,99220.64
2018-06-16T17:00:35.477Z,99215.52
2018-06-16T17:03:04.098Z,99207.30
2018-06-16T17:05:32.749Z,99214.43
2018-06-16T17:08:01.446Z,99211.48
2018-06-16T17:10:30.124Z,99214.67
2018-06-16T17:12:58.851Z,99214.81
2018-06-16T17:15:27.548Z,99216.72
2018-06-16T17:17:56.172Z,99219.58
2018-06-16T17:20:24.880Z,99211.37
2018-06-16T17:22:53.510Z,99212.20
2018-06-16T17:25:22.102Z,99205.77
2018-06-16T17:27:50.791Z,99207.20
2018-06-16T17:30:19.390Z,99209.59
2018-06-16T17:32:48.051Z,99215.29
2018-06-16T17:35:17.402Z,99213.14
2018-06-16T17:37:46.039Z,99218.98
2018-06-16T17:40:14.723Z,99207.67
2018-06-16T17:42:43.415Z,99215.05
2018-06-16T17:45:12.116Z,99215.39
2018-06-16T17:47:40.754Z,99222.53
2018-06-16T17:50:09.508Z,99215.82
2018-06-16T17:52:38.166Z,99218.94
2018-06-16T17:55:06.818Z,99217.91
2018-06-16T17:57:35.498Z,99216.05
2018-06-16T18:00:04.614Z,99219.28
2018-06-16T18:02:33.283Z,99224.64
2018-06-16T18:05:02.011Z,99222.97
2018-06-16T18:07:30.735Z,99218.44
2018-06-16T18:09:59.435Z,99219.86
2018-06-16T18:12:28.133Z,99229.25
2018-06-16T18:14:56.797Z,99229.73
2018-06-16T18:17:25.481Z,99234.02
2018-06-16T18:19:55.396Z,99228.41
2018-06-16T18:22:24.730Z,99235.41
2018-06-16T18:24:53.404Z,99241.31
2018-06-16T18:27:24.091Z,99235.62
2018-06-16T18:29:52.807Z,99232.99
2018-06-16T18:32:22.865Z,99231.34
2018-06-16T18:34:52.235Z,99234.17
2018-06-16T18:37:20.863Z,99239.64
2018-06-16T18:39:49.596Z,99234.49
2018-06-16T18:42:18.294Z,99237.81
2018-06-16T18:44:46.984Z,99243.02
2018-06-16T18:47:15.665Z,99238.52
2018-06-16T18:49:44.400Z,99247.55
2018-06-16T18:52:13.057Z,99245.74
2018-06-16T18:54:41.658Z,99249.19
2018-06-16T18:57:10.413Z,99254.91
2018-06-16T18:59:39.086Z,99253.35
2018-06-16T19:02:07.827Z,99251.99
2018-06-16T19:04:36.478Z,99258.71
2018-06-16T19:07:05.831Z,99270.09
2018-06-16T19:09:34.517Z,99262.91
2018-06-16T19:12:03.241Z,99270.86
2018-06-16T19:14:31.957Z,99270.92
2018-06-16T19:17:00.652Z,99271.64
2018-06-16T19:19:29.390Z,99276.83
2018-06-16T19:21:58.073Z,99278.35
2018-06-16T19:24:26.716Z,99278.78
2018-06-16T19:26:55.427Z,99280.31
2018-06-16T19:29:24.064Z,99284.61
2018-06-16T19:31:52.831Z,99284.73
2018-06-16T19:34:21.507Z,99280.61
2018-06-16T19:36:50.230Z,99294.25
2018-06-16T19:39:18.927Z,99290.08
2018-06-16T19:41:47.623Z,99289.40
2018-06-16T19:44:16.246Z,99299.30
2018-06-16T19:46:44.829Z,99300.41
2018-06-16T19:49:13.471Z,99299.33
2018-06-16T19:51:42.479Z,99301.56
2018-06-16T19:54:11.106Z,99300.19
2018-06-16T19:56:40.650Z,99301.16
2018-06-16T19:59:09.281Z,99302.63
2018-06-16T20:01:37.991Z,99298.48
2018-06-16T20:04:06.668Z,99303.07
2018-06-16T20:06:35.440Z,99302.03
2018-06-16T20:09:05.012Z,99303.02
2018-06-16T20:11:33.694Z,99297.22
2018-06-16T20:14:02.607Z,99306.97
2018-06-16T20:16:31.274Z,99311.87
2018-06-16T20:19:00.535Z,99307.41
2018-06-16T20:21:29.577Z,99309.66
2018-06-16T20:23:58.514Z,99315.58
2018-06-16T20:26:27.160Z,99313.20
2018-06-16T20:28:55.863Z,99311.42
2018-06-16T20:31:24.512Z,99313.45
2018-06-16T20:33:54.431Z,99309.97
2018-06-16T20:36:23.142Z,99316.84
2018-06-16T20:38:51.797Z,99319.77
2018-06-16T20:41:20.412Z,99316.83
2018-06-16T20:43:49.134Z,99317.06
2018-06-16T20:46:17.753Z,99332.52
2018-06-16T20:48:46.396Z,99330.48
2018-06-16T20:51:15.055Z,99335.56
2018-06-16T20:53:43.716Z,99337.22
2018-06-16T20:56:13.284Z,99337.40
2018-06-16T20:58:41.934Z,99331.28
2018-06-16T21:01:10.644Z,99330.82
2018-06-16T21:03:40.498Z,99330.11
2018-06-16T21:06:09.188Z,99328.41
2018-06-16T21:08:37.762Z,99327.68
2018-06-16T21:11:06.453Z,99326.38
2018-06-16T21:13:35.629Z,99333.35
2018-06-16T21:16:04.287Z,99327.95
2018-06-16T21:18:33.000Z,99326.86
2018-06-16T21:21:01.609Z,99334.94
2018-06-16T21:23:30.329Z,99331.80
2018-06-16T21:25:58.981Z,99329.00
2018-06-16T21:28:27.672Z,99328.36
2018-06-16T21:30:56.238Z,99326.93
2018-06-16T21:33:25.600Z,99325.89
2018-06-16T21:35:55.254Z,99336.36
2018-06-16T21:38:23.898Z,99329.92
2018-06-16T21:40:52.538Z,99332.34
2018-06-16T21:43:21.183Z,99340.48
2018-06-16T21:45:49.906Z,99337.98
2018-06-16T21:48:18.570Z,99332.25
2018-06-16T21:50:47.278Z,99333.50
2018-06-16T21:53:15.881Z,99332.78
2018-06-16T21:55:45.319Z,99330.72
2018-06-16T21:58:13.913Z,99329.70
2018-06-16T22:00:42.586Z,99331.37
2018-06-16T22:03:11.273Z,99335.75
2018-06-16T22:05:39.945Z,99331.65
2018-06-16T22:08:14.101Z,99334.94
2018-06-16T22:10:42.753Z,99329.92
2018-06-16T22:13:14.042Z,99330.77
2018-06-16T22:15:42.742Z,99327.51
2018-06-16T22:18:12.211Z,99330.66
2018-06-16T22:20:40.878Z,99334.37
2018-06-16T22:23:09.500Z,99328.43
2018-06-16T22:25:38.688Z,99330.84
2018-06-16T22:28:07.891Z,99337.16
2018-06-16T22:30:36.514Z,99337.81
2018-06-16T22:33:05.338Z,99340.80
2018-06-16T22:35:34.214Z,99333.17
2018-06-16T22:38:02.884Z,99335.16
2018-06-16T22:40:31.483Z,99331.88
2018-06-16T22:43:00.238Z,99341.48
2018-06-16T22:45:32.171Z,99340.06
2018-06-16T22:48:01.974Z,99340.26
2018-06-16T22:50:32.700Z,99340.72
2018-06-16T22:53:01.405Z,99340.33
2018-06-16T22:55:30.864Z,99339.03
2018-06-16T22:58:01.837Z,99332.52
2018-06-16T23:00:32.423Z,99337.92
2018-06-16T23:03:01.086Z,99334.02
2018-06-16T23:05:29.782Z,99333.25
2018-06-16T23:07:58.494Z,99338.84
2018-06-16T23:10:27.119Z,99330.86
2018-06-16T23:12:56.397Z,99333.64
2018-06-16T23:15:25.083Z,99334.77
2018-06-16T23:17:53.758Z,99328.83
2018-06-16T23:20:22.393Z,99332.91
2018-06-16T23:22:51.029Z,99334.49
2018-06-16T23:25:19.665Z,99331.27
2018-06-16T23:27:48.344Z,99323.35
2018-06-16T23:30:17.290Z,99324.11
2018-06-16T23:32:46.741Z,99325.75
2018-06-16T23:35:15.416Z,99321.41
2018-06-16T23:37:44.173Z,99327.63
2018-06-16T23:40:12.746Z,99324.66
2018-06-16T23:42:41.355Z,99327.82
2018-06-16T23:45:09.990Z,99317.59
2018-06-16T23:47:38.685Z,99320.45
2018-06-16T23:50:07.353Z,99322.90
2018-06-16T23:52:35.965Z,99318.70
2018-06-16T23:55:04.610Z,99323.07
2018-06-16T23:57:33.253Z,99324.34
